Time,TemperatureF,DewpointF,PressureIn,WindDirection,WindDirectionDegrees,WindSpeedMPH,WindSpeedGustMPH,Humidity,HourlyPrecipIn,Conditions,Clouds,dailyrainin,SoftwareType,DateUTC
2013-04-30 00:02:00,64.0,64.0,29.98,ESE,114,4.0,7.0,98,-99.99,,,-99.99,,2013-04-30 04:02:00,
2013-04-30 00:12:00,64.0,64.0,29.98,ESE,114,4.0,7.0,98,-99.99,,,-99.99,,2013-04-30 04:12:00,
2013-04-30 00:22:00,66.0,65.0,29.99,SE,145,4.0,6.0,97,-99.99,,,-99.99,,2013-04-30 04:22:00,
2013-04-30 00:32:00,66.0,65.0,29.99,SE,145,4.0,6.0,97,-99.99,,,-99.99,,2013-04-30 04:32:00,
2013-04-30 00:42:00,66.0,65.0,29.99,SE,135,3.0,5.0,97,-99.99,,,-99.99,,2013-04-30 04:42:00,
2013-04-30 00:52:00,66.0,65.0,29.99,SE,142,3.0,5.0,97,-99.99,,,-99.99,,2013-04-30 04:52:00,
2013-04-30 01:02:00,66.0,65.0,29.99,SE,142,3.0,5.0,97,-99.99,,,-99.99,,2013-04-30 05:02:00,
2013-04-30 01:12:00,66.0,65.0,29.99,SE,142,3.0,5.0,97,-99.99,,,-99.99,,2013-04-30 05:12:00,
2013-04-30 01:22:00,65.0,64.0,30.00,ESE,112,1.0,2.0,97,-99.99,,,-99.99,,2013-04-30 05:22:00,
2013-04-30 01:31:00,65.0,64.0,30.00,ESE,112,1.0,2.0,97,-99.99,,,-99.99,,2013-04-30 05:31:00,
2013-04-30 01:42:00,64.0,63.0,29.99,ESE,117,2.0,4.0,97,-99.99,,,-99.99,,2013-04-30 05:42:00,
2013-04-30 01:51:00,64.0,63.0,29.99,ESE,117,2.0,4.0,97,-99.99,,,-99.99,,2013-04-30 05:51:00,
2013-04-30 02:02:00,64.0,63.0,29.99,ESE,117,2.0,4.0,97,-99.99,,,-99.99,,2013-04-30 06:02:00,
2013-04-30 02:12:00,64.0,63.0,29.99,ESE,117,2.0,4.0,97,-99.99,,,-99.99,,2013-04-30 06:12:00,
2013-04-30 02:21:00,63.0,63.0,29.98,NE,52,0.0,1.0,97,-99.99,,,-99.99,,2013-04-30 06:21:00,
2013-04-30 02:32:00,63.0,63.0,29.98,NE,52,0.0,1.0,97,-99.99,,,-99.99,,2013-04-30 06:32:00,
2013-04-30 02:42:00,63.0,62.0,29.98,NNE,22,1.0,2.0,97,-99.99,,,-99.99,,2013-04-30 06:42:00,
2013-04-30 02:52:00,63.0,62.0,29.98,NNE,22,1.0,2.0,97,-99.99,,,-99.99,,2013-04-30 06:52:00,
2013-04-30 03:02:00,63.0,62.0,29.97,NNE,31,2.0,3.0,97,-99.99,,,-99.99,,2013-04-30 07:02:00,
2013-04-30 03:11:00,63.0,62.0,29.97,NNE,31,2.0,3.0,97,-99.99,,,-99.99,,2013-04-30 07:11:00,
2013-04-30 03:21:00,63.0,62.0,29.96,NE,40,2.0,4.0,97,-99.99,,,-99.99,,2013-04-30 07:21:00,
2013-04-30 03:32:00,63.0,62.0,29.96,ENE,57,1.0,2.0,97,-99.99,,,-99.99,,2013-04-30 07:32:00,
2013-04-30 03:42:00,63.0,62.0,29.96,ENE,57,1.0,2.0,97,-99.99,,,-99.99,,2013-04-30 07:42:00,
2013-04-30 03:52:00,63.0,62.0,29.96,ENE,57,1.0,2.0,97,-99.99,,,-99.99,,2013-04-30 07:52:00,
2013-04-30 04:02:00,62.0,61.0,29.95,ENE,62,1.0,3.0,98,-99.99,,,-99.99,,2013-04-30 08:02:00,
2013-04-30 04:11:00,62.0,61.0,29.95,ENE,62,1.0,3.0,98,-99.99,,,-99.99,,2013-04-30 08:11:00,
2013-04-30 04:22:00,62.0,61.0,29.95,ENE,66,1.0,3.0,98,-99.99,,,-99.99,,2013-04-30 08:22:00,
2013-04-30 04:32:00,62.0,61.0,29.95,ENE,66,1.0,3.0,98,-99.99,,,-99.99,,2013-04-30 08:32:00,
2013-04-30 04:42:00,62.0,61.0,29.95,SSE,168,1.0,1.0,98,-99.99,,,-99.99,,2013-04-30 08:42:00,
2013-04-30 04:52:00,62.0,61.0,29.95,SSE,168,1.0,1.0,98,-99.99,,,-99.99,,2013-04-30 08:52:00,
2013-04-30 05:01:00,62.0,61.0,29.95,SSE,168,1.0,1.0,98,-99.99,,,-99.99,,2013-04-30 09:01:00,
2013-04-30 05:11:00,62.0,61.0,29.96,SSE,160,1.0,2.0,98,-99.99,,,-99.99,,2013-04-30 09:11:00,
2013-04-30 05:22:00,62.0,61.0,29.96,SSE,160,1.0,2.0,98,-99.99,,,-99.99,,2013-04-30 09:22:00,
2013-04-30 05:33:00,61.0,61.0,29.96,NE,49,2.0,4.0,98,-99.99,,,-99.99,,2013-04-30 09:33:00,
2013-04-30 05:43:00,61.0,61.0,29.96,SE,145,1.0,2.0,98,-99.99,,,-99.99,,2013-04-30 09:43:00,
2013-04-30 05:52:00,61.0,61.0,29.96,SE,145,1.0,2.0,98,-99.99,,,-99.99,,2013-04-30 09:52:00,
2013-04-30 06:03:00,62.0,61.0,29.96,SSE,163,1.0,1.0,98,-99.99,,,-99.99,,2013-04-30 10:03:00,
2013-04-30 06:12:00,62.0,61.0,29.96,SSE,163,1.0,1.0,98,-99.99,,,-99.99,,2013-04-30 10:12:00,
2013-04-30 06:22:00,62.0,61.0,29.96,East,94,1.0,2.0,98,-99.99,,,-99.99,,2013-04-30 10:22:00,
2013-04-30 06:32:00,61.0,61.0,29.97,East,94,1.0,2.0,98,-99.99,,,-99.99,,2013-04-30 10:32:00,
2013-04-30 06:41:00,61.0,61.0,29.97,ENE,63,1.0,2.0,98,-99.99,,,-99.99,,2013-04-30 10:41:00,
2013-04-30 06:52:00,61.0,61.0,29.97,ENE,63,1.0,2.0,98,-99.99,,,-99.99,,2013-04-30 10:52:00,
2013-04-30 07:02:00,61.0,61.0,29.97,ENE,63,1.0,2.0,98,-99.99,,,-99.99,,2013-04-30 11:02:00,
2013-04-30 07:11:00,61.0,60.0,29.98,East,92,1.0,1.0,98,-99.99,,,-99.99,,2013-04-30 11:11:00,
2013-04-30 07:21:00,61.0,60.0,29.98,East,92,1.0,1.0,98,-99.99,,,-99.99,,2013-04-30 11:21:00,
2013-04-30 07:32:00,61.0,61.0,29.98,NNE,21,2.0,3.0,98,-99.99,,,-99.99,,2013-04-30 11:32:00,
2013-04-30 07:42:00,62.0,61.0,29.99,NNE,22,2.0,3.0,98,-99.99,,,-99.99,,2013-04-30 11:42:00,
2013-04-30 07:52:00,62.0,61.0,29.99,NNE,22,2.0,3.0,98,-99.99,,,-99.99,,2013-04-30 11:52:00,
2013-04-30 08:01:00,62.0,61.0,29.99,NNE,22,2.0,3.0,98,-99.99,,,-99.99,,2013-04-30 12:01:00,
2013-04-30 08:11:00,62.0,61.0,29.99,NNE,22,2.0,3.0,98,-99.99,,,-99.99,,2013-04-30 12:11:00,
2013-04-30 08:22:00,67.0,67.0,29.99,ENE,68,2.0,4.0,98,-99.99,,,-99.99,,2013-04-30 12:22:00,
2013-04-30 08:31:00,67.0,67.0,29.99,ENE,68,2.0,4.0,98,-99.99,,,-99.99,,2013-04-30 12:31:00,
2013-04-30 08:41:00,69.0,69.0,29.99,ENE,69,2.0,5.0,98,-99.99,,,-99.99,,2013-04-30 12:41:00,
2013-04-30 08:51:00,70.0,70.0,30.00,ENE,69,2.0,5.0,98,-99.99,,,-99.99,,2013-04-30 12:51:00,
2013-04-30 09:01:00,70.0,70.0,30.00,ENE,69,2.0,5.0,98,-99.99,,,-99.99,,2013-04-30 13:01:00,
2013-04-30 09:11:00,70.0,70.0,30.00,ENE,69,2.0,5.0,98,-99.99,,,-99.99,,2013-04-30 13:11:00,
2013-04-30 09:21:00,72.0,71.0,30.01,East,83,2.0,3.0,97,-99.99,,,-99.99,,2013-04-30 13:21:00,
2013-04-30 09:31:00,73.0,72.0,30.01,ENE,76,2.0,5.0,96,-99.99,,,-99.99,,2013-04-30 13:31:00,
2013-04-30 09:41:00,73.0,72.0,30.01,ENE,76,2.0,5.0,96,-99.99,,,-99.99,,2013-04-30 13:41:00,
2013-04-30 09:52:00,73.0,72.0,30.01,ENE,76,2.0,5.0,96,-99.99,,,-99.99,,2013-04-30 13:52:00,
2013-04-30 10:02:00,73.0,72.0,30.01,East,98,3.0,5.0,94,-99.99,,,-99.99,,2013-04-30 14:02:00,
2013-04-30 10:11:00,73.0,72.0,30.01,East,98,3.0,5.0,94,-99.99,,,-99.99,,2013-04-30 14:11:00,
2013-04-30 10:21:00,76.0,72.0,30.01,SE,126,4.0,7.0,87,-99.99,,,-99.99,,2013-04-30 14:21:00,
2013-04-30 10:31:00,76.0,72.0,30.01,SE,126,4.0,7.0,87,-99.99,,,-99.99,,2013-04-30 14:31:00,
2013-04-30 10:41:00,76.0,72.0,30.02,SE,131,5.0,8.0,88,-99.99,,,-99.99,,2013-04-30 14:41:00,
2013-04-30 10:52:00,76.0,72.0,30.02,SE,131,5.0,8.0,88,-99.99,,,-99.99,,2013-04-30 14:52:00,
2013-04-30 11:02:00,77.0,72.0,30.02,SE,142,4.0,11.0,84,-99.99,,,-99.99,,2013-04-30 15:02:00,
2013-04-30 11:11:00,77.0,72.0,30.02,SE,142,4.0,11.0,84,-99.99,,,-99.99,,2013-04-30 15:11:00,
2013-04-30 11:21:00,80.0,73.0,30.01,SSE,163,8.0,13.0,78,-99.99,,,-99.99,,2013-04-30 15:21:00,
2013-04-30 11:32:00,80.0,73.0,30.01,SSE,163,8.0,13.0,78,-99.99,,,-99.99,,2013-04-30 15:32:00,
2013-04-30 11:42:00,81.0,73.0,30.00,South,174,8.0,13.0,76,-99.99,,,-99.99,,2013-04-30 15:42:00,
2013-04-30 11:53:00,81.0,73.0,30.00,South,174,8.0,13.0,76,-99.99,,,-99.99,,2013-04-30 15:53:00,
2013-04-30 12:02:00,81.0,72.0,30.00,South,170,8.0,13.0,73,-99.99,,,-99.99,,2013-04-30 16:02:00,
2013-04-30 12:12:00,82.0,71.0,30.00,South,176,7.0,12.0,70,-99.99,,,-99.99,,2013-04-30 16:12:00,
2013-04-30 12:23:00,82.0,71.0,30.00,South,176,7.0,12.0,70,-99.99,,,-99.99,,2013-04-30 16:23:00,
2013-04-30 12:33:00,82.0,71.0,30.00,South,176,7.0,12.0,70,-99.99,,,-99.99,,2013-04-30 16:33:00,
2013-04-30 12:42:00,81.0,71.0,30.00,SSW,196,5.0,9.0,71,-99.99,,,-99.99,,2013-04-30 16:42:00,
2013-04-30 12:52:00,81.0,71.0,30.00,SSW,196,5.0,9.0,71,-99.99,,,-99.99,,2013-04-30 16:52:00,
2013-04-30 13:02:00,82.0,71.0,29.99,SSW,192,6.0,14.0,67,-99.99,,,-99.99,,2013-04-30 17:02:00,
2013-04-30 13:12:00,82.0,71.0,29.99,SSW,192,6.0,14.0,67,-99.99,,,-99.99,,2013-04-30 17:12:00,
2013-04-30 13:22:00,85.0,69.0,29.98,South,183,6.0,13.0,59,-99.99,,,-99.99,,2013-04-30 17:22:00,
2013-04-30 13:32:00,85.0,69.0,29.98,South,183,6.0,13.0,59,-99.99,,,-99.99,,2013-04-30 17:32:00,
2013-04-30 13:42:00,86.0,69.0,29.97,SSE,164,7.0,14.0,57,-99.99,,,-99.99,,2013-04-30 17:42:00,
2013-04-30 13:53:00,85.0,69.0,29.97,South,191,6.0,10.0,58,-99.99,,,-99.99,,2013-04-30 17:53:00,
2013-04-30 14:01:00,85.0,69.0,29.97,South,191,6.0,10.0,58,-99.99,,,-99.99,,2013-04-30 18:01:00,
2013-04-30 14:11:00,85.0,69.0,29.97,South,191,6.0,10.0,58,-99.99,,,-99.99,,2013-04-30 18:11:00,
2013-04-30 14:22:00,84.0,70.0,29.97,SSW,207,7.0,13.0,62,-99.99,,,-99.99,,2013-04-30 18:22:00,
2013-04-30 14:32:00,84.0,70.0,29.97,SSW,207,7.0,13.0,62,-99.99,,,-99.99,,2013-04-30 18:32:00,
2013-04-30 14:42:00,85.0,71.0,29.96,SSW,205,8.0,18.0,62,-99.99,,,-99.99,,2013-04-30 18:42:00,
2013-04-30 14:52:00,85.0,71.0,29.96,SSW,205,8.0,18.0,62,-99.99,,,-99.99,,2013-04-30 18:52:00,
2013-04-30 15:02:00,85.0,71.0,29.95,SSW,198,8.0,14.0,61,-99.99,,,-99.99,,2013-04-30 19:02:00,
2013-04-30 15:11:00,85.0,71.0,29.95,SSW,198,8.0,14.0,61,-99.99,,,-99.99,,2013-04-30 19:11:00,
2013-04-30 15:22:00,85.0,71.0,29.95,SSW,209,8.0,15.0,61,-99.99,,,-99.99,,2013-04-30 19:22:00,
2013-04-30 15:32:00,85.0,71.0,29.95,SSW,209,8.0,15.0,61,-99.99,,,-99.99,,2013-04-30 19:32:00,
2013-04-30 15:42:00,86.0,71.0,29.94,SSW,197,9.0,16.0,59,-99.99,,,-99.99,,2013-04-30 19:42:00,
2013-04-30 15:52:00,86.0,71.0,29.94,SSW,197,9.0,16.0,59,-99.99,,,-99.99,,2013-04-30 19:52:00,
2013-04-30 16:02:00,84.0,71.0,29.94,SSW,199,8.0,14.0,63,-99.99,,,-99.99,,2013-04-30 20:02:00,
2013-04-30 16:11:00,84.0,71.0,29.94,SSW,199,8.0,14.0,63,-99.99,,,-99.99,,2013-04-30 20:11:00,
2013-04-30 16:22:00,85.0,71.0,29.94,SW,220,7.0,15.0,61,-99.99,,,-99.99,,2013-04-30 20:22:00,
2013-04-30 16:32:00,83.0,70.0,29.94,SW,225,8.0,13.0,64,-99.99,,,-99.99,,2013-04-30 20:32:00,
2013-04-30 16:42:00,83.0,70.0,29.94,SW,225,8.0,13.0,64,-99.99,,,-99.99,,2013-04-30 20:42:00,
2013-04-30 16:52:00,83.0,70.0,29.94,SW,225,8.0,13.0,64,-99.99,,,-99.99,,2013-04-30 20:52:00,
2013-04-30 17:02:00,83.0,71.0,29.94,SSW,206,6.0,12.0,66,-99.99,,,-99.99,,2013-04-30 21:02:00,
2013-04-30 17:11:00,83.0,71.0,29.94,SSW,206,6.0,12.0,66,-99.99,,,-99.99,,2013-04-30 21:11:00,
2013-04-30 17:22:00,84.0,71.0,29.95,SSE,150,6.0,12.0,63,-99.99,,,-99.99,,2013-04-30 21:22:00,
2013-04-30 17:32:00,84.0,71.0,29.95,SSE,150,6.0,12.0,63,-99.99,,,-99.99,,2013-04-30 21:32:00,
2013-04-30 17:42:00,78.0,67.0,29.95,NE,45,9.0,13.0,68,-99.99,,,-99.99,,2013-04-30 21:42:00,
2013-04-30 17:53:00,78.0,67.0,29.95,NE,45,9.0,13.0,68,-99.99,,,-99.99,,2013-04-30 21:53:00,
2013-04-30 18:03:00,77.0,67.0,29.96,ENE,73,6.0,12.0,71,-99.99,,,-99.99,,2013-04-30 22:03:00,
2013-04-30 18:12:00,76.0,68.0,29.96,East,89,4.0,9.0,75,-99.99,,,-99.99,,2013-04-30 22:12:00,
2013-04-30 18:23:00,76.0,68.0,29.96,East,89,4.0,9.0,75,-99.99,,,-99.99,,2013-04-30 22:23:00,
2013-04-30 18:33:00,76.0,68.0,29.96,ESE,110,4.0,8.0,75,-99.99,,,-99.99,,2013-04-30 22:33:00,
2013-04-30 18:42:00,76.0,68.0,29.96,ESE,110,4.0,8.0,75,-99.99,,,-99.99,,2013-04-30 22:42:00,
2013-04-30 18:53:00,76.0,68.0,29.96,ESE,108,4.0,7.0,77,-99.99,,,-99.99,,2013-04-30 22:53:00,
2013-04-30 19:02:00,76.0,68.0,29.96,ESE,108,4.0,7.0,77,-99.99,,,-99.99,,2013-04-30 23:02:00,
2013-04-30 19:12:00,76.0,68.0,29.96,ESE,108,4.0,7.0,77,-99.99,,,-99.99,,2013-04-30 23:12:00,
2013-04-30 19:22:00,76.0,69.0,29.97,East,90,4.0,7.0,77,-99.99,,,-99.99,,2013-04-30 23:22:00,
2013-04-30 19:32:00,76.0,67.0,29.98,East,98,5.0,9.0,74,-99.99,,,-99.99,,2013-04-30 23:32:00,
2013-04-30 19:42:00,76.0,67.0,29.98,East,98,5.0,9.0,74,-99.99,,,-99.99,,2013-04-30 23:42:00,
2013-04-30 19:52:00,75.0,67.0,29.98,ESE,110,7.0,15.0,77,-99.99,,,-99.99,,2013-04-30 23:52:00,
2013-04-30 20:02:00,75.0,67.0,29.98,ESE,110,7.0,15.0,77,-99.99,,,-99.99,,2013-05-01 00:02:00,
2013-04-30 20:11:00,74.0,67.0,29.98,SE,130,5.0,11.0,78,-99.99,,,-99.99,,2013-05-01 00:11:00,
2013-04-30 20:22:00,74.0,67.0,29.98,SE,130,5.0,11.0,78,-99.99,,,-99.99,,2013-05-01 00:22:00,
2013-04-30 20:32:00,74.0,67.0,29.98,SE,130,5.0,11.0,78,-99.99,,,-99.99,,2013-05-01 00:32:00,
2013-04-30 20:42:00,73.0,66.0,29.98,ESE,123,5.0,9.0,78,-99.99,,,-99.99,,2013-05-01 00:42:00,
2013-04-30 20:52:00,72.0,65.0,29.98,ESE,107,3.0,6.0,78,-99.99,,,-99.99,,2013-05-01 00:52:00,
2013-04-30 21:01:00,72.0,65.0,29.98,ESE,107,3.0,6.0,78,-99.99,,,-99.99,,2013-05-01 01:01:00,
2013-04-30 21:11:00,72.0,65.0,29.98,ESE,107,3.0,6.0,78,-99.99,,,-99.99,,2013-05-01 01:11:00,
2013-04-30 21:21:00,70.0,65.0,29.98,ESE,121,2.0,4.0,83,-99.99,,,-99.99,,2013-05-01 01:21:00,
2013-04-30 21:32:00,68.0,65.0,29.99,ENE,71,2.0,3.0,87,-99.99,,,-99.99,,2013-05-01 01:32:00,
2013-04-30 21:42:00,68.0,65.0,29.99,ENE,71,2.0,3.0,87,-99.99,,,-99.99,,2013-05-01 01:42:00,
2013-04-30 21:52:00,68.0,65.0,29.99,ENE,71,2.0,3.0,87,-99.99,,,-99.99,,2013-05-01 01:52:00,
2013-04-30 22:02:00,67.0,64.0,29.99,South,171,1.0,4.0,90,-99.99,,,-99.99,,2013-05-01 02:02:00,
2013-04-30 22:11:00,67.0,64.0,29.99,South,171,1.0,4.0,90,-99.99,,,-99.99,,2013-05-01 02:11:00,
2013-04-30 22:22:00,67.0,64.0,30.00,East,90,2.0,4.0,89,-99.99,,,-99.99,,2013-05-01 02:22:00,
2013-04-30 22:32:00,67.0,64.0,30.00,East,89,1.0,2.0,90,-99.99,,,-99.99,,2013-05-01 02:32:00,
2013-04-30 22:42:00,67.0,64.0,30.00,East,89,1.0,2.0,90,-99.99,,,-99.99,,2013-05-01 02:42:00,
2013-04-30 22:52:00,67.0,64.0,30.00,East,89,1.0,2.0,90,-99.99,,,-99.99,,2013-05-01 02:52:00,
2013-04-30 23:02:00,65.0,63.0,30.01,ENE,74,2.0,4.0,92,-99.99,,,-99.99,,2013-05-01 03:02:00,
2013-04-30 23:11:00,64.0,63.0,30.01,East,91,1.0,1.0,95,-99.99,,,-99.99,,2013-05-01 03:11:00,
2013-04-30 23:22:00,64.0,63.0,30.01,East,91,1.0,1.0,95,-99.99,,,-99.99,,2013-05-01 03:22:00,
2013-04-30 23:33:00,64.0,63.0,30.01,East,91,1.0,1.0,95,-99.99,,,-99.99,,2013-05-01 03:33:00,
2013-04-30 23:43:00,64.0,62.0,30.01,ESE,113,1.0,1.0,95,-99.99,,,-99.99,,2013-05-01 03:43:00,
2013-04-30 23:53:00,64.0,62.0,30.01,ESE,113,1.0,1.0,95,-99.99,,,-99.99,,2013-05-01 03:53:00,